createdAt,value
2018-08-17T00:00:40.218Z,18.74
2018-08-17T00:03:44.480Z,18.68
2018-08-17T00:06:48.400Z,18.65
2018-08-17T00:09:52.828Z,18.57
2018-08-17T00:12:57.061Z,18.56
2018-08-17T00:16:01.540Z,18.53
2018-08-17T00:19:05.701Z,18.46
2018-08-17T00:22:09.591Z,18.43
2018-08-17T00:25:13.492Z,18.37
2018-08-17T00:28:17.392Z,18.32
2018-08-17T00:31:21.309Z,18.32
2018-08-17T00:34:25.557Z,18.26
2018-08-17T00:37:29.458Z,18.22
2018-08-17T00:40:33.577Z,18.17
2018-08-17T00:43:37.825Z,18.15
2018-08-17T00:46:41.733Z,18.12
2018-08-17T00:49:45.694Z,18.07
2018-08-17T00:52:49.822Z,18.06
2018-08-17T00:55:54.168Z,18.01
2018-08-17T00:58:58.242Z,17.95
2018-08-17T01:02:02.132Z,17.95
2018-08-17T01:05:06.254Z,17.88
2018-08-17T01:08:10.676Z,17.87
2018-08-17T01:11:16.872Z,17.84
2018-08-17T01:14:20.769Z,17.80
2018-08-17T01:17:24.898Z,17.77
2018-08-17T01:20:29.110Z,17.73
2018-08-17T01:23:33.325Z,17.69
2018-08-17T01:26:37.218Z,17.67
2018-08-17T01:29:41.092Z,17.64
2018-08-17T01:32:45.305Z,17.61
2018-08-17T01:35:49.193Z,17.56
2018-08-17T01:38:53.097Z,17.51
2018-08-17T01:41:56.973Z,17.48
2018-08-17T01:45:01.095Z,17.47
2018-08-17T01:48:04.984Z,17.37
2018-08-17T01:51:08.865Z,17.38
2018-08-17T01:54:12.744Z,17.35
2018-08-17T01:57:16.625Z,17.29
2018-08-17T02:00:21.081Z,17.28
2018-08-17T02:03:24.961Z,17.26
2018-08-17T02:06:28.854Z,17.23
2018-08-17T02:09:32.836Z,17.17
2018-08-17T02:12:36.992Z,17.12
2018-08-17T02:15:40.928Z,17.11
2018-08-17T02:18:44.801Z,17.08
2018-08-17T02:21:48.721Z,17.07
2018-08-17T02:24:52.605Z,17.04
2018-08-17T02:27:56.633Z,17.01
2018-08-17T02:31:00.775Z,16.98
2018-08-17T02:34:04.680Z,16.94
2018-08-17T02:37:09.093Z,16.92
2018-08-17T02:40:13.336Z,16.87
2018-08-17T02:43:17.213Z,16.86
2018-08-17T02:46:21.113Z,16.80
2018-08-17T02:49:25.001Z,16.79
2018-08-17T02:52:29.098Z,16.71
2018-08-17T02:55:32.998Z,16.70
2018-08-17T02:58:37.076Z,16.72
2018-08-17T03:01:41.056Z,16.65
2018-08-17T03:04:44.961Z,16.61
2018-08-17T03:07:48.868Z,16.59
2018-08-17T03:10:52.944Z,16.58
2018-08-17T03:13:56.853Z,16.52
2018-08-17T03:17:01.059Z,16.53
2018-08-17T03:20:06.001Z,16.50
2018-08-17T03:23:11.108Z,16.45
2018-08-17T03:26:15.329Z,16.42
2018-08-17T03:29:19.226Z,16.37
2018-08-17T03:32:23.324Z,16.36
2018-08-17T03:35:27.226Z,16.35
2018-08-17T03:38:31.461Z,16.29
2018-08-17T03:41:35.344Z,16.31
2018-08-17T03:44:39.304Z,16.27
2018-08-17T03:47:43.389Z,16.28
2018-08-17T03:50:47.301Z,16.25
2018-08-17T03:53:51.824Z,16.20
2018-08-17T03:56:55.859Z,16.17
2018-08-17T03:59:59.729Z,16.16
2018-08-17T04:03:03.949Z,16.16
2018-08-17T04:06:08.394Z,16.12
2018-08-17T04:09:12.478Z,16.09
2018-08-17T04:12:16.540Z,16.08
2018-08-17T04:15:20.463Z,16.06
2018-08-17T04:18:24.521Z,16.00
2018-08-17T04:21:30.138Z,15.99
2018-08-17T04:24:34.043Z,16.00
2018-08-17T04:27:37.942Z,15.95
2018-08-17T04:30:41.826Z,15.95
2018-08-17T04:33:46.400Z,15.93
2018-08-17T04:36:50.728Z,15.89
2018-08-17T04:39:54.645Z,15.86
2018-08-17T04:42:58.546Z,15.84
2018-08-17T04:46:02.445Z,15.83
2018-08-17T04:49:06.352Z,15.86
2018-08-17T04:52:10.413Z,15.86
2018-08-17T04:55:14.312Z,15.87
2018-08-17T04:58:18.386Z,15.87
2018-08-17T05:01:22.286Z,15.85
2018-08-17T05:04:26.708Z,15.86
2018-08-17T05:07:30.589Z,15.90
2018-08-17T05:10:34.489Z,15.88
2018-08-17T05:13:38.423Z,15.90
2018-08-17T05:16:42.500Z,15.98
2018-08-17T05:19:46.389Z,15.95
2018-08-17T05:22:50.471Z,15.98
2018-08-17T05:25:54.868Z,16.02
2018-08-17T05:28:58.766Z,16.06
2018-08-17T05:32:02.640Z,16.09
2018-08-17T05:35:06.628Z,16.11
2018-08-17T05:38:10.511Z,16.15
2018-08-17T05:41:14.398Z,16.15
2018-08-17T05:44:18.473Z,16.18
2018-08-17T05:47:22.528Z,16.20
2018-08-17T05:50:26.502Z,16.24
2018-08-17T05:53:30.368Z,16.36
2018-08-17T05:56:34.326Z,16.43
2018-08-17T05:59:38.368Z,16.49
2018-08-17T06:02:42.521Z,16.55
2018-08-17T06:05:46.593Z,16.61
2018-08-17T06:08:50.817Z,16.67
2018-08-17T06:11:54.692Z,16.75
2018-08-17T06:14:58.576Z,16.80
2018-08-17T06:18:02.475Z,16.86
2018-08-17T06:21:06.383Z,16.93
2018-08-17T06:24:11.393Z,16.99
2018-08-17T06:27:15.277Z,17.06
2018-08-17T06:30:19.496Z,17.12
2018-08-17T06:33:23.718Z,17.18
2018-08-17T06:36:27.608Z,17.25
2018-08-17T06:39:31.493Z,17.32
2018-08-17T06:42:35.366Z,17.38
2018-08-17T06:45:39.251Z,17.45
2018-08-17T06:48:43.141Z,17.51
2018-08-17T06:51:47.366Z,17.56
2018-08-17T06:54:51.425Z,17.62
2018-08-17T06:57:55.299Z,17.67
2018-08-17T07:00:59.177Z,17.74
2018-08-17T07:04:03.572Z,17.80
2018-08-17T07:07:07.530Z,17.86
2018-08-17T07:10:12.785Z,17.92
2018-08-17T07:13:16.909Z,17.97
2018-08-17T07:16:21.062Z,18.05
2018-08-17T07:19:25.122Z,18.11
2018-08-17T07:22:29.677Z,18.16
2018-08-17T07:25:34.145Z,18.24
2018-08-17T07:28:38.041Z,18.31
2018-08-17T07:31:41.929Z,18.37
2018-08-17T07:34:45.812Z,18.45
2018-08-17T07:37:49.685Z,18.53
2018-08-17T07:40:54.121Z,18.59
2018-08-17T07:43:58.373Z,18.69
2018-08-17T07:47:02.494Z,18.77
2018-08-17T07:50:06.389Z,18.85
2018-08-17T07:53:10.705Z,18.93
2018-08-17T07:56:14.602Z,19.00
2018-08-17T07:59:18.501Z,19.08
2018-08-17T08:02:22.386Z,19.15
2018-08-17T08:05:26.287Z,19.21
2018-08-17T08:08:30.168Z,19.28
2018-08-17T08:11:34.415Z,19.35
2018-08-17T08:14:38.560Z,19.39
2018-08-17T08:17:42.569Z,19.45
2018-08-17T08:20:46.693Z,19.51
2018-08-17T08:23:50.824Z,19.55
2018-08-17T08:26:54.713Z,19.60
2018-08-17T08:29:58.637Z,19.64
2018-08-17T08:33:02.877Z,19.70
2018-08-17T08:36:07.108Z,19.77
2018-08-17T08:39:12.601Z,19.84
2018-08-17T08:42:16.469Z,19.92
2018-08-17T08:45:20.695Z,19.99
2018-08-17T08:48:24.778Z,20.07
2018-08-17T08:51:28.664Z,20.14
2018-08-17T08:54:32.556Z,20.20
2018-08-17T08:57:36.781Z,20.25
2018-08-17T09:00:40.998Z,20.31
2018-08-17T09:03:45.220Z,20.38
2018-08-17T09:06:49.436Z,20.44
2018-08-17T09:09:53.390Z,20.49
2018-08-17T09:12:57.293Z,20.56
2018-08-17T09:16:01.396Z,20.62
2018-08-17T09:19:05.381Z,20.69
2018-08-17T09:22:09.619Z,20.74
2018-08-17T09:25:13.841Z,20.81
2018-08-17T09:28:18.052Z,20.85
2018-08-17T09:31:22.481Z,20.89
2018-08-17T09:34:26.374Z,20.95
2018-08-17T09:37:30.294Z,20.99
2018-08-17T09:40:34.506Z,21.03
2018-08-17T09:43:38.376Z,21.06
2018-08-17T09:46:42.267Z,21.10
2018-08-17T09:49:46.366Z,21.16
2018-08-17T09:52:50.333Z,21.21
2018-08-17T09:55:54.229Z,21.25
2018-08-17T09:58:58.468Z,21.31
2018-08-17T10:02:08.903Z,21.35
2018-08-17T10:05:18.329Z,21.40
2018-08-17T10:08:27.561Z,21.42
2018-08-17T10:11:31.445Z,21.45
2018-08-17T10:14:35.335Z,21.46
2018-08-17T10:17:39.565Z,21.48
2018-08-17T10:20:43.520Z,21.49
2018-08-17T10:23:47.542Z,21.51
2018-08-17T10:26:52.555Z,21.53
2018-08-17T10:29:56.446Z,21.54
2018-08-17T10:33:00.910Z,21.55
2018-08-17T10:36:05.168Z,21.57
2018-08-17T10:39:10.153Z,21.57
2018-08-17T10:42:14.530Z,21.58
2018-08-17T10:45:19.617Z,21.59
2018-08-17T10:48:23.497Z,21.62
2018-08-17T10:51:27.378Z,21.62
2018-08-17T10:54:31.256Z,21.64
2018-08-17T10:57:35.209Z,21.66
2018-08-17T11:00:39.577Z,21.68
2018-08-17T11:03:43.457Z,21.70
2018-08-17T11:06:47.333Z,21.73
2018-08-17T11:09:51.689Z,21.76
2018-08-17T11:12:55.566Z,21.78
2018-08-17T11:15:59.709Z,21.82
2018-08-17T11:19:03.823Z,21.84
2018-08-17T11:22:08.041Z,21.85
2018-08-17T11:25:13.022Z,21.85
2018-08-17T11:28:16.916Z,21.83
2018-08-17T11:31:20.793Z,21.80
2018-08-17T11:34:24.746Z,21.76
2018-08-17T11:37:28.781Z,21.73
2018-08-17T11:40:33.024Z,21.70
2018-08-17T11:43:36.895Z,21.66
2018-08-17T11:46:40.780Z,21.65
2018-08-17T11:49:44.668Z,21.61
2018-08-17T11:53:05.333Z,21.58
2018-08-17T11:56:09.540Z,21.51
2018-08-17T11:59:13.421Z,21.46
2018-08-17T12:02:17.922Z,21.42
2018-08-17T12:05:22.118Z,21.40
2018-08-17T12:08:26.152Z,21.34
2018-08-17T12:11:30.226Z,21.29
2018-08-17T12:14:34.305Z,21.18
2018-08-17T12:17:38.373Z,21.10
2018-08-17T12:20:42.256Z,20.98
2018-08-17T12:23:46.137Z,21.01
2018-08-17T12:26:53.716Z,20.95
2018-08-17T12:29:57.605Z,20.95
2018-08-17T12:33:01.480Z,20.93
2018-08-17T12:36:05.704Z,20.92
2018-08-17T12:39:09.991Z,20.81
2018-08-17T12:42:14.112Z,20.84
2018-08-17T12:45:18.177Z,20.86
2018-08-17T12:48:22.064Z,20.89
2018-08-17T12:51:25.946Z,20.89
2018-08-17T12:54:34.772Z,20.92
2018-08-17T12:57:42.352Z,20.92
2018-08-17T13:00:46.564Z,20.94
2018-08-17T13:03:50.462Z,20.94
2018-08-17T13:06:54.365Z,20.96
2018-08-17T13:09:58.242Z,20.99
2018-08-17T13:13:06.721Z,21.01
2018-08-17T13:16:10.606Z,21.02
2018-08-17T13:19:14.485Z,21.04
2018-08-17T13:22:18.392Z,21.08
2018-08-17T13:25:22.509Z,21.12
2018-08-17T13:28:26.625Z,21.14
2018-08-17T13:31:31.220Z,21.16
2018-08-17T13:34:35.177Z,21.23
2018-08-17T13:37:39.077Z,21.26
2018-08-17T13:40:43.169Z,21.31
2018-08-17T13:43:47.061Z,21.36
2018-08-17T13:46:50.961Z,21.37
2018-08-17T13:49:54.838Z,21.39
2018-08-17T13:52:58.936Z,21.42
2018-08-17T13:56:03.169Z,21.44
2018-08-17T13:59:07.088Z,21.46
2018-08-17T14:02:11.647Z,21.49
2018-08-17T14:05:15.692Z,21.48
2018-08-17T14:08:19.607Z,21.48
2018-08-17T14:11:24.105Z,21.48
2018-08-17T14:14:28.385Z,21.46
2018-08-17T14:17:32.265Z,21.46
2018-08-17T14:23:55.117Z,21.48
2018-08-17T14:26:59.005Z,21.51
2018-08-17T14:30:02.957Z,21.54
2018-08-17T14:33:07.085Z,21.57
2018-08-17T14:36:11.504Z,21.60
2018-08-17T14:39:15.436Z,21.63
2018-08-17T14:42:19.636Z,21.65
2018-08-17T14:45:23.721Z,21.67
2018-08-17T14:48:27.856Z,21.70
2018-08-17T14:51:31.772Z,21.72
2018-08-17T14:54:35.660Z,21.73
2018-08-17T14:57:40.087Z,21.74
2018-08-17T15:00:44.295Z,21.77
2018-08-17T15:03:48.194Z,21.80
2018-08-17T15:06:52.401Z,21.79
2018-08-17T15:09:56.550Z,21.80
2018-08-17T15:13:00.776Z,21.81
2018-08-17T15:16:04.882Z,21.82
2018-08-17T15:19:08.815Z,21.82
2018-08-17T15:22:13.233Z,21.81
2018-08-17T15:25:17.456Z,21.78
2018-08-17T15:28:21.345Z,21.76
2018-08-17T15:31:25.239Z,21.74
2018-08-17T15:34:29.144Z,21.69
2018-08-17T15:37:33.142Z,21.64
2018-08-17T15:40:37.382Z,21.59
2018-08-17T15:43:41.453Z,21.55
2018-08-17T15:46:45.921Z,21.50
2018-08-17T15:50:03.977Z,21.46
2018-08-17T15:53:08.185Z,21.43
2018-08-17T15:56:13.117Z,21.41
2018-08-17T15:59:17.345Z,21.37
2018-08-17T16:02:21.484Z,21.36
2018-08-17T16:05:25.898Z,21.33
2018-08-17T16:08:29.802Z,21.33
2018-08-17T16:11:33.874Z,21.31
2018-08-17T16:14:37.767Z,21.29
2018-08-17T16:17:41.839Z,21.27
2018-08-17T16:20:45.716Z,21.26
2018-08-17T16:23:49.943Z,21.23
2018-08-17T16:26:54.152Z,21.21
2018-08-17T16:29:58.042Z,21.19
2018-08-17T16:33:01.953Z,21.15
2018-08-17T16:36:05.913Z,21.09
2018-08-17T16:39:13.503Z,21.06
2018-08-17T16:42:22.762Z,21.04
2018-08-17T16:45:26.625Z,21.00
2018-08-17T16:48:30.602Z,20.99
2018-08-17T16:51:34.745Z,20.95
2018-08-17T16:54:38.714Z,20.93
2018-08-17T16:57:42.710Z,20.89
2018-08-17T17:00:46.985Z,20.88
2018-08-17T17:03:51.024Z,20.88
2018-08-17T17:06:54.906Z,20.85
2018-08-17T17:09:59.076Z,20.83
2018-08-17T17:13:03.159Z,20.83
2018-08-17T17:16:07.060Z,20.81
2018-08-17T17:19:16.235Z,20.78
2018-08-17T17:22:20.720Z,20.77
2018-08-17T17:25:24.577Z,20.75
2018-08-17T17:28:31.562Z,20.73
2018-08-17T17:31:35.442Z,20.72
2018-08-17T17:34:39.413Z,20.71
2018-08-17T17:37:43.448Z,20.69
2018-08-17T17:40:47.326Z,20.68
2018-08-17T17:43:51.425Z,20.66
2018-08-17T17:46:55.314Z,20.64
2018-08-17T17:49:59.237Z,20.62
2018-08-17T17:53:04.302Z,20.61
2018-08-17T17:56:08.189Z,20.59
2018-08-17T17:59:14.587Z,20.58
2018-08-17T18:02:18.809Z,20.54
2018-08-17T18:05:23.033Z,20.53
2018-08-17T18:08:26.917Z,20.49
2018-08-17T18:11:31.142Z,20.47
2018-08-17T18:14:35.029Z,20.42
2018-08-17T18:17:39.164Z,20.36
2018-08-17T18:20:43.059Z,20.29
2018-08-17T18:23:54.694Z,20.23
2018-08-17T18:26:58.583Z,20.17
2018-08-17T18:30:03.024Z,20.13
2018-08-17T18:33:07.297Z,20.07
2018-08-17T18:36:11.184Z,19.98
2018-08-17T18:39:16.109Z,19.89
2018-08-17T18:42:20.764Z,19.80
2018-08-17T18:45:24.869Z,19.71
2018-08-17T18:48:28.752Z,19.64
2018-08-17T18:51:32.637Z,19.57
2018-08-17T18:54:36.526Z,19.46
2018-08-17T18:57:40.602Z,19.42
2018-08-17T19:00:44.834Z,19.32
2018-08-17T19:03:49.048Z,19.27
2018-08-17T19:06:53.081Z,19.18
2018-08-17T19:09:56.975Z,19.10
2018-08-17T19:13:01.059Z,19.01
2018-08-17T19:16:05.004Z,18.93
2018-08-17T19:19:09.069Z,18.82
2018-08-17T19:22:13.002Z,18.76
2018-08-17T19:25:16.972Z,18.67
2018-08-17T19:28:21.048Z,18.59
2018-08-17T19:31:25.132Z,18.51
2018-08-17T19:34:30.615Z,18.41
2018-08-17T19:37:38.730Z,18.33
2018-08-17T19:40:42.949Z,18.24
2018-08-17T19:43:46.840Z,18.14
2018-08-17T19:46:51.269Z,18.07
2018-08-17T19:49:55.166Z,17.96
2018-08-17T19:52:59.352Z,17.89
2018-08-17T19:56:03.379Z,17.82
2018-08-17T19:59:07.652Z,17.73
2018-08-17T20:02:11.867Z,17.64
2018-08-17T20:05:15.766Z,17.55
2018-08-17T20:08:19.658Z,17.48
2018-08-17T20:11:23.541Z,17.41
2018-08-17T20:14:27.460Z,17.31
2018-08-17T20:17:31.340Z,17.25
2018-08-17T20:20:35.402Z,17.14
2018-08-17T20:23:39.472Z,17.06
2018-08-17T20:26:43.740Z,16.99
2018-08-17T20:29:47.490Z,16.91
2018-08-17T20:32:51.924Z,16.83
2018-08-17T20:35:56.675Z,16.74
2018-08-17T20:39:00.544Z,16.71
2018-08-17T20:42:04.429Z,16.63
2018-08-17T20:45:08.888Z,16.56
2018-08-17T20:48:12.768Z,16.51
2018-08-17T20:51:22.150Z,16.43
2018-08-17T20:54:26.405Z,16.40
2018-08-17T20:57:30.292Z,16.31
2018-08-17T21:00:34.446Z,16.25
2018-08-17T21:03:38.846Z,16.21
2018-08-17T21:06:43.559Z,16.14
2018-08-17T21:09:47.484Z,16.09
2018-08-17T21:12:51.585Z,16.02
2018-08-17T21:15:55.462Z,15.97
2018-08-17T21:18:59.726Z,15.92
2018-08-17T21:22:04.130Z,15.84
2018-08-17T21:25:08.234Z,15.82
2018-08-17T21:28:12.341Z,15.79
2018-08-17T21:31:17.240Z,15.72
2018-08-17T21:34:21.516Z,15.67
2018-08-17T21:37:26.361Z,15.62
2018-08-17T21:40:30.764Z,15.58
2018-08-17T21:43:34.643Z,15.54
2018-08-17T21:46:38.725Z,15.49
2018-08-17T21:49:42.602Z,15.43
2018-08-17T21:52:47.029Z,15.40
2018-08-17T21:55:50.909Z,15.36
2018-08-17T21:58:54.800Z,15.34
2018-08-17T22:01:58.686Z,15.31
2018-08-17T22:05:02.577Z,15.29
2018-08-17T22:08:06.465Z,15.27
2018-08-17T22:11:11.288Z,15.21
2018-08-17T22:14:15.512Z,15.20
2018-08-17T22:17:31.865Z,15.14
2018-08-17T22:20:35.768Z,15.09
2018-08-17T22:23:39.853Z,15.05
2018-08-17T22:26:43.745Z,15.04
2018-08-17T22:29:49.483Z,14.97
2018-08-17T22:32:53.451Z,14.94
2018-08-17T22:35:57.543Z,14.92
2018-08-17T22:39:01.934Z,14.88
2018-08-17T22:42:06.010Z,14.81
2018-08-17T22:45:10.080Z,14.72
2018-08-17T22:48:13.992Z,14.68
2018-08-17T22:51:18.373Z,14.66
2018-08-17T22:54:22.242Z,14.61
2018-08-17T22:57:26.821Z,14.55
2018-08-17T23:00:31.551Z,14.48
2018-08-17T23:03:39.037Z,14.48
2018-08-17T23:06:43.607Z,14.45
2018-08-17T23:09:47.559Z,14.40
2018-08-17T23:12:52.409Z,14.35
2018-08-17T23:15:57.964Z,14.30
2018-08-17T23:19:01.858Z,14.27
2018-08-17T23:22:06.069Z,14.21
2018-08-17T23:25:12.057Z,14.23
2018-08-17T23:28:15.930Z,14.18
2018-08-17T23:31:19.805Z,14.08
2018-08-17T23:34:23.687Z,14.07
2018-08-17T23:37:27.557Z,14.01
2018-08-17T23:40:31.441Z,13.99
2018-08-17T23:43:35.654Z,13.94
2018-08-17T23:46:39.526Z,13.90
2018-08-17T23:49:43.402Z,13.85
2018-08-17T23:52:47.530Z,13.84
2018-08-17T23:55:51.622Z,13.77
2018-08-17T23:58:55.503Z,13.72
